CheckWX is a tool to help pilots better visualize weather data.  It is not intended as a substitute for an official pre-flight weather briefing.

01:53:06 UTC

FAPM TAF
Pietermaritzburg Airport
Pietermaritzburg, South Africa
TAF FAPM 181800Z 1819/1906 VRB02KT 9999 BKN020 TX21/1819Z TN16/1903Z PROB30 TEMPO 1819/1823 5000 TSRA BKN012 FEW035CB PROB30 TEMPO 1901/1905 0800 FG BKN009

Mar-18@
19:00 UTC

Mar-18 @ 19:00 UTC

Mar-19@
06:00 UTC

Mar-19 @ 06:00 UTC

TAF FAPM 181800Z 1819/1906 VRB02KT 9999 BKN020 TX21/1819Z TN16/1903Z
Wind
  • Variable at 2 KTS
Cloud Levels
  • Broken at 2,000' AGL

Mar-18@
19:00 UTC

Mar-18 @ 19:00 UTC

Mar-18@
23:00 UTC

Mar-18 @ 23:00 UTC

PROB30 TEMPO 1819/1823 5000 TSRA BKN012 FEW035CB

Expired

Conditions
Thunderstorm, Rain
Cloud Levels
  • Broken at 1,200' AGL
  • Few at 3,500' AGL

Mar-19@
01:00 UTC

Mar-19 @ 01:00 UTC

Mar-19@
05:00 UTC

Mar-19 @ 05:00 UTC

PROB30 TEMPO 1901/1905 0800 FG BKN009

Temporary - 30% Likelihood

Temporary - 30% Likelihood during this time.

Conditions
Fog
Cloud Levels
  • Broken at 900' AGL